createdAt,value
2018-02-24T00:01:08.738Z,-7.70
2018-02-24T00:03:37.153Z,-7.82
2018-02-24T00:06:05.512Z,-7.93
2018-02-24T00:08:34.981Z,-8.00
2018-02-24T00:11:04.180Z,-7.97
2018-02-24T00:13:32.497Z,-8.05
2018-02-24T00:16:01.646Z,-8.03
2018-02-24T00:18:30.022Z,-7.99
2018-02-24T00:20:58.369Z,-8.06
2018-02-24T00:23:27.158Z,-8.12
2018-02-24T00:25:55.526Z,-8.15
2018-02-24T00:28:23.952Z,-8.21
2018-02-24T00:30:52.284Z,-8.25
2018-02-24T00:33:20.673Z,-8.11
2018-02-24T00:35:49.313Z,-8.13
2018-02-24T00:38:18.452Z,-8.16
2018-02-24T00:40:46.781Z,-8.19
2018-02-24T00:43:15.558Z,-8.24
2018-02-24T00:45:43.923Z,-8.25
2018-02-24T00:48:12.296Z,-8.26
2018-02-24T00:50:40.651Z,-8.18
2018-02-24T00:53:09.013Z,-8.14
2018-02-24T00:55:38.206Z,-8.10
2018-02-24T00:58:07.294Z,-8.09
2018-02-24T01:00:36.417Z,-8.00
2018-02-24T01:03:05.614Z,-7.98
2018-02-24T01:05:34.028Z,-7.97
2018-02-24T01:08:02.350Z,-8.07
2018-02-24T01:10:31.717Z,-8.01
2018-02-24T01:13:00.110Z,-8.04
2018-02-24T01:15:28.488Z,-8.04
2018-02-24T01:17:56.830Z,-8.01
2018-02-24T01:20:25.173Z,-8.07
2018-02-24T01:22:54.302Z,-8.10
2018-02-24T01:25:22.666Z,-8.14
2018-02-24T01:27:51.008Z,-8.14
2018-02-24T01:30:20.197Z,-8.16
2018-02-24T01:32:48.556Z,-8.26
2018-02-24T01:35:16.951Z,-8.28
2018-02-24T01:37:45.307Z,-8.35
2018-02-24T01:40:13.677Z,-8.35
2018-02-24T01:42:42.037Z,-8.26
2018-02-24T01:45:10.922Z,-8.34
2018-02-24T01:47:39.296Z,-8.41
2018-02-24T01:50:07.903Z,-8.41
2018-02-24T01:52:37.951Z,-8.37
2018-02-24T01:55:06.358Z,-8.37
2018-02-24T01:57:34.795Z,-8.46
2018-02-24T02:00:03.167Z,-8.57
2018-02-24T02:02:31.515Z,-8.64
2018-02-24T02:04:59.851Z,-8.65
2018-02-24T02:07:28.229Z,-8.61
2018-02-24T02:09:57.378Z,-8.53
2018-02-24T02:12:25.725Z,-8.52
2018-02-24T02:14:54.110Z,-8.55
2018-02-24T02:17:22.552Z,-8.60
2018-02-24T02:19:50.913Z,-8.64
2018-02-24T02:22:19.705Z,-8.69
2018-02-24T02:24:48.043Z,-8.72
2018-02-24T02:27:16.376Z,-8.74
2018-02-24T02:29:44.897Z,-8.75
2018-02-24T02:32:13.246Z,-8.74
2018-02-24T02:34:42.383Z,-8.75
2018-02-24T02:37:10.745Z,-8.77
2018-02-24T02:39:39.085Z,-8.75
2018-02-24T02:42:07.487Z,-8.70
2018-02-24T02:44:35.910Z,-8.64
2018-02-24T02:47:04.273Z,-8.67
2018-02-24T02:49:33.848Z,-8.69
2018-02-24T02:52:03.492Z,-8.75
2018-02-24T02:54:33.044Z,-8.79
2018-02-24T02:57:01.413Z,-8.82
2018-02-24T02:59:29.777Z,-8.68
2018-02-24T03:01:58.148Z,-8.43
2018-02-24T03:04:26.804Z,-8.45
2018-02-24T03:06:55.169Z,-8.56
2018-02-24T03:09:23.487Z,-8.57
2018-02-24T03:11:51.878Z,-8.60
2018-02-24T03:14:20.205Z,-8.63
2018-02-24T03:16:48.562Z,-8.58
2018-02-24T03:19:17.666Z,-8.60
2018-02-24T03:21:46.056Z,-8.59
2018-02-24T03:24:14.405Z,-8.50
2018-02-24T03:26:43.140Z,-8.57
2018-02-24T03:29:11.528Z,-8.63
2018-02-24T03:31:39.893Z,-8.70
2018-02-24T03:34:08.276Z,-8.63
2018-02-24T03:36:36.700Z,-8.66
2018-02-24T03:39:05.073Z,-8.70
2018-02-24T03:41:33.404Z,-8.74
2018-02-24T03:44:01.769Z,-8.67
2018-02-24T03:46:30.126Z,-8.36
2018-02-24T03:48:59.215Z,-8.06
2018-02-24T03:51:28.343Z,-7.77
2018-02-24T03:53:56.680Z,-7.55
2018-02-24T03:56:25.017Z,-7.37
2018-02-24T03:58:53.406Z,-7.22
2018-02-24T04:01:21.766Z,-7.12
2018-02-24T04:03:50.133Z,-6.95
2018-02-24T04:06:18.476Z,-6.89
2018-02-24T04:08:47.610Z,-6.86
2018-02-24T04:11:15.948Z,-6.78
2018-02-24T04:13:45.236Z,-6.79
2018-02-24T04:16:13.624Z,-6.88
2018-02-24T04:18:41.934Z,-6.84
2018-02-24T04:21:10.655Z,-6.85
2018-02-24T04:23:39.065Z,-6.83
2018-02-24T04:26:08.175Z,-6.60
2018-02-24T04:28:36.531Z,-6.34
2018-02-24T04:31:04.900Z,-6.30
2018-02-24T04:33:33.236Z,-6.19
2018-02-24T04:36:01.591Z,-6.07
2018-02-24T04:38:30.691Z,-5.95
2018-02-24T04:40:59.050Z,-5.88
2018-02-24T04:43:28.178Z,-5.81
2018-02-24T04:45:56.535Z,-5.78
2018-02-24T04:48:25.692Z,-5.66
2018-02-24T04:50:54.020Z,-5.58
2018-02-24T04:53:22.376Z,-5.56
2018-02-24T04:55:51.483Z,-5.43
2018-02-24T04:58:20.623Z,-5.30
2018-02-24T05:00:49.010Z,-5.21
2018-02-24T05:03:17.355Z,-5.15
2018-02-24T05:05:45.720Z,-5.07
2018-02-24T05:08:14.044Z,-5.16
2018-02-24T05:10:42.434Z,-5.16
2018-02-24T05:13:10.762Z,-5.01
2018-02-24T05:15:39.124Z,-4.88
2018-02-24T05:18:08.217Z,-4.82
2018-02-24T05:20:37.611Z,-4.86
2018-02-24T05:23:05.951Z,-4.95
2018-02-24T05:25:34.315Z,-4.94
2018-02-24T05:28:02.650Z,-4.88
2018-02-24T05:30:31.809Z,-4.78
2018-02-24T05:33:00.142Z,-4.68
2018-02-24T05:35:28.486Z,-4.63
2018-02-24T05:37:56.841Z,-4.50
2018-02-24T05:40:25.624Z,-4.38
2018-02-24T05:42:53.955Z,-4.30
2018-02-24T05:45:22.303Z,-4.22
2018-02-24T05:47:50.684Z,-4.11
2018-02-24T05:50:19.803Z,-4.02
2018-02-24T05:52:48.162Z,-3.96
2018-02-24T05:55:17.384Z,-3.92
2018-02-24T05:57:45.748Z,-3.94
2018-02-24T06:00:14.848Z,-4.00
2018-02-24T06:02:43.197Z,-4.20
2018-02-24T06:05:11.535Z,-4.26
2018-02-24T06:07:39.911Z,-4.28
2018-02-24T06:10:08.239Z,-4.30
2018-02-24T06:12:37.367Z,-4.42
2018-02-24T06:15:05.682Z,-4.44
2018-02-24T06:17:34.044Z,-4.43
2018-02-24T06:20:02.381Z,-4.48
2018-02-24T06:22:31.583Z,-4.53
2018-02-24T06:24:59.915Z,-4.63
2018-02-24T06:27:28.265Z,-4.71
2018-02-24T06:29:56.622Z,-4.66
2018-02-24T06:32:24.990Z,-4.64
2018-02-24T06:34:53.330Z,-4.67
2018-02-24T06:37:21.667Z,-4.69
2018-02-24T06:39:50.022Z,-4.70
2018-02-24T06:42:19.154Z,-4.67
2018-02-24T06:44:47.494Z,-4.63
2018-02-24T06:47:17.360Z,-4.60
2018-02-24T06:49:45.689Z,-4.61
2018-02-24T06:52:14.058Z,-4.61
2018-02-24T06:54:43.174Z,-4.58
2018-02-24T06:57:11.571Z,-4.59
2018-02-24T06:59:40.166Z,-4.43
2018-02-24T07:02:08.586Z,-4.38
2018-02-24T07:04:37.747Z,-4.27
2018-02-24T07:07:06.148Z,-4.25
2018-02-24T07:09:34.478Z,-4.20
2018-02-24T07:12:02.838Z,-4.10
2018-02-24T07:14:32.558Z,-4.04
2018-02-24T07:17:00.897Z,-3.97
2018-02-24T07:19:30.031Z,-3.89
2018-02-24T07:21:58.463Z,-3.78
2018-02-24T07:24:26.798Z,-3.72
2018-02-24T07:26:55.942Z,-3.62
2018-02-24T07:29:25.074Z,-3.53
2018-02-24T07:31:54.078Z,-3.45
2018-02-24T07:34:22.716Z,-3.39
2018-02-24T07:36:51.091Z,-3.33
2018-02-24T07:39:19.425Z,-3.17
2018-02-24T07:41:47.739Z,-3.06
2018-02-24T07:44:16.155Z,-2.97
2018-02-24T07:46:44.567Z,-2.90
2018-02-24T07:49:13.124Z,-2.82
2018-02-24T07:51:41.459Z,-2.74
2018-02-24T07:54:10.619Z,-2.61
2018-02-24T07:56:38.946Z,-2.60
2018-02-24T07:59:07.321Z,-2.53
2018-02-24T08:01:35.713Z,-2.46
2018-02-24T08:04:04.819Z,-2.37
2018-02-24T08:06:33.171Z,-2.31
2018-02-24T08:09:01.508Z,-2.28
2018-02-24T08:11:29.838Z,-2.24
2018-02-24T08:13:58.986Z,-2.23
2018-02-24T08:16:27.325Z,-2.18
2018-02-24T08:18:55.659Z,-2.18
2018-02-24T08:21:23.996Z,-2.17
2018-02-24T08:23:52.336Z,-2.15
2018-02-24T08:26:22.295Z,-2.13
2018-02-24T08:28:50.679Z,-2.10
2018-02-24T08:31:19.767Z,-2.02
2018-02-24T08:33:48.151Z,-2.02
2018-02-24T08:36:16.476Z,-1.94
2018-02-24T08:38:45.589Z,-1.90
2018-02-24T08:41:14.922Z,-1.81
2018-02-24T08:43:43.277Z,-1.76
2018-02-24T08:46:11.656Z,-1.72
2018-02-24T08:48:40.018Z,-1.65
2018-02-24T08:51:09.126Z,-1.52
2018-02-24T08:53:37.528Z,-1.62
2018-02-24T08:56:06.156Z,-1.58
2018-02-24T08:58:34.486Z,-1.48
2018-02-24T09:01:03.997Z,-1.59
2018-02-24T09:03:32.720Z,-1.58
2018-02-24T09:06:01.821Z,-1.58
2018-02-24T09:08:31.765Z,-1.39
2018-02-24T09:11:00.123Z,-1.38
2018-02-24T09:13:29.051Z,-1.29
2018-02-24T09:15:58.465Z,-1.24
2018-02-24T09:18:27.121Z,-1.32
2018-02-24T09:20:56.276Z,-1.14
2018-02-24T09:23:25.789Z,-0.94
2018-02-24T09:25:55.510Z,-0.65
2018-02-24T09:28:24.599Z,-0.64
2018-02-24T09:30:53.176Z,-0.43
2018-02-24T09:33:21.518Z,-0.36
2018-02-24T09:35:50.621Z,-0.22
2018-02-24T09:38:18.982Z,-0.36
2018-02-24T09:40:47.307Z,-0.76
2018-02-24T09:43:15.976Z,-0.77
2018-02-24T09:45:44.482Z,-0.81
2018-02-24T09:48:13.788Z,-0.85
2018-02-24T09:50:43.081Z,-1.00
2018-02-24T09:53:12.186Z,-0.88
2018-02-24T09:55:41.362Z,-0.92
2018-02-24T09:58:09.685Z,-0.92
2018-02-24T10:00:38.132Z,-1.06
2018-02-24T10:03:07.362Z,-1.16
2018-02-24T10:05:36.685Z,-1.28
2018-02-24T10:08:05.253Z,-1.18
2018-02-24T10:10:33.645Z,-1.13
2018-02-24T10:13:01.997Z,-1.15
2018-02-24T10:15:30.561Z,-1.10
2018-02-24T10:18:06.741Z,-1.11
2018-02-24T10:20:36.425Z,-0.83
2018-02-24T10:23:05.221Z,-0.74
2018-02-24T10:25:34.328Z,-0.79
2018-02-24T10:28:02.706Z,-0.82
2018-02-24T10:30:31.139Z,-0.88
2018-02-24T10:32:59.462Z,-0.79
2018-02-24T10:35:30.627Z,-1.00
2018-02-24T10:37:58.969Z,-0.77
2018-02-24T10:40:28.121Z,-1.01
2018-02-24T10:42:56.477Z,-0.88
2018-02-24T10:45:25.741Z,-0.76
2018-02-24T10:47:54.870Z,-0.87
2018-02-24T10:50:23.200Z,-0.79
2018-02-24T10:52:51.567Z,-0.90
2018-02-24T10:55:19.882Z,-0.79
2018-02-24T10:57:48.276Z,-0.69
2018-02-24T11:00:16.631Z,-0.57
2018-02-24T11:02:44.997Z,-0.30
2018-02-24T11:05:14.106Z,-0.11
2018-02-24T11:07:42.797Z,-0.06
2018-02-24T11:10:11.189Z,-0.14
2018-02-24T11:12:39.519Z,-0.37
2018-02-24T11:15:07.892Z,-0.39
2018-02-24T11:17:36.230Z,-0.57
2018-02-24T11:20:04.628Z,-0.57
2018-02-24T11:22:32.952Z,-0.46
2018-02-24T11:25:02.070Z,-0.61
2018-02-24T11:27:30.441Z,-0.59
2018-02-24T11:29:58.766Z,-0.13
2018-02-24T11:32:27.162Z,-0.51
2018-02-24T11:34:55.500Z,-0.56
2018-02-24T11:37:23.836Z,-0.70
2018-02-24T11:39:52.967Z,-0.69
2018-02-24T11:42:21.292Z,-0.64
2018-02-24T11:44:49.607Z,-0.49
2018-02-24T11:47:17.981Z,-0.16
2018-02-24T11:49:46.386Z,0.08
2018-02-24T11:52:14.777Z,0.42
2018-02-24T11:54:43.118Z,-0.11
2018-02-24T11:57:11.447Z,-0.12
2018-02-24T11:59:39.799Z,-0.09
2018-02-24T12:02:08.166Z,0.09
2018-02-24T12:04:36.492Z,0.32
2018-02-24T12:07:04.800Z,-0.23
2018-02-24T12:09:33.176Z,0.06
2018-02-24T12:12:01.498Z,-0.24
2018-02-24T12:14:29.854Z,-0.50
2018-02-24T12:16:58.219Z,-0.39
2018-02-24T12:19:26.559Z,-0.30
2018-02-24T12:21:54.908Z,-0.59
2018-02-24T12:24:24.046Z,-0.48
2018-02-24T12:26:52.380Z,-0.12
2018-02-24T12:29:20.756Z,-0.06
2018-02-24T12:31:49.150Z,-0.39
2018-02-24T12:34:17.501Z,-0.10
2018-02-24T12:36:45.920Z,-0.31
2018-02-24T12:39:14.254Z,-0.31
2018-02-24T12:41:42.626Z,-0.06
2018-02-24T12:44:10.962Z,-0.15
2018-02-24T12:46:40.138Z,0.06
2018-02-24T12:49:08.413Z,0.10
2018-02-24T12:51:36.772Z,-0.27
2018-02-24T12:54:05.151Z,-0.03
2018-02-24T12:56:33.527Z,0.01
2018-02-24T12:59:01.883Z,0.34
2018-02-24T13:01:30.327Z,0.03
2018-02-24T13:03:58.748Z,-0.11
2018-02-24T13:06:27.121Z,-0.29
2018-02-24T13:08:55.469Z,-0.36
2018-02-24T13:11:24.568Z,-0.48
2018-02-24T13:13:52.957Z,-0.62
2018-02-24T13:16:22.099Z,-0.54
2018-02-24T13:18:50.510Z,-0.50
2018-02-24T13:21:19.646Z,-0.39
2018-02-24T13:23:48.001Z,-0.14
2018-02-24T13:26:16.604Z,0.21
2018-02-24T13:28:44.963Z,0.84
2018-02-24T13:31:14.188Z,0.36
2018-02-24T13:33:42.532Z,-0.05
2018-02-24T13:36:10.891Z,-0.46
2018-02-24T13:38:39.994Z,-0.16
2018-02-24T13:41:09.515Z,-0.63
2018-02-24T13:43:37.862Z,-1.06
2018-02-24T13:46:06.199Z,-1.27
2018-02-24T13:48:34.595Z,-1.12
2018-02-24T13:51:02.961Z,-1.08
2018-02-24T13:53:31.319Z,-0.85
2018-02-24T13:55:59.643Z,-0.53
2018-02-24T13:58:35.962Z,-0.41
2018-02-24T14:01:13.019Z,-0.36
2018-02-24T14:03:51.353Z,-0.05
2018-02-24T14:06:28.432Z,-0.05
2018-02-24T14:09:06.385Z,0.11
2018-02-24T14:11:35.207Z,0.77
2018-02-24T14:14:05.080Z,0.53
2018-02-24T14:16:33.399Z,0.37
2018-02-24T14:19:01.758Z,0.02
2018-02-24T14:21:30.948Z,0.08
2018-02-24T14:23:59.276Z,-0.03
2018-02-24T14:26:27.619Z,-0.14
2018-02-24T14:28:56.715Z,-0.10
2018-02-24T14:31:25.835Z,-0.31
2018-02-24T14:33:54.155Z,-0.43
2018-02-24T14:36:22.501Z,-0.76
2018-02-24T14:38:52.820Z,-0.85
2018-02-24T14:41:21.177Z,-0.96
2018-02-24T14:43:49.538Z,-0.82
2018-02-24T14:46:17.886Z,-0.91
2018-02-24T14:48:46.241Z,-1.04
2018-02-24T14:51:14.641Z,-0.83
2018-02-24T14:53:42.953Z,-0.80
2018-02-24T14:56:12.143Z,-0.70
2018-02-24T14:58:41.235Z,-0.76
2018-02-24T15:01:09.659Z,-0.79
2018-02-24T15:03:38.035Z,-0.85
2018-02-24T15:06:06.460Z,-0.82
2018-02-24T15:08:35.951Z,-1.08
2018-02-24T15:11:04.315Z,-1.23
2018-02-24T15:13:32.679Z,-1.43
2018-02-24T15:16:01.785Z,-1.50
2018-02-24T15:18:30.161Z,-1.56
2018-02-24T15:20:58.523Z,-1.44
2018-02-24T15:23:26.896Z,-1.34
2018-02-24T15:25:56.001Z,-1.11
2018-02-24T15:28:24.351Z,-1.17
2018-02-24T15:30:52.738Z,-1.13
2018-02-24T15:33:21.127Z,-1.01
2018-02-24T15:35:51.386Z,-0.96
2018-02-24T15:38:20.601Z,-1.07
2018-02-24T15:40:50.476Z,-1.26
2018-02-24T15:43:20.303Z,-1.40
2018-02-24T15:45:48.740Z,-1.60
2018-02-24T15:48:17.105Z,-1.75
2018-02-24T15:50:46.260Z,-1.88
2018-02-24T15:53:14.612Z,-2.01
2018-02-24T15:55:44.098Z,-2.08
2018-02-24T15:58:13.690Z,-2.14
2018-02-24T16:00:43.231Z,-2.17
2018-02-24T16:03:11.580Z,-2.23
2018-02-24T16:05:39.946Z,-2.29
2018-02-24T16:08:09.803Z,-2.26
2018-02-24T16:10:39.730Z,-2.30
2018-02-24T16:13:08.119Z,-2.38
2018-02-24T16:15:36.486Z,-2.47
2018-02-24T16:18:04.887Z,-2.48
2018-02-24T16:20:33.849Z,-2.48
2018-02-24T16:23:03.134Z,-2.55
2018-02-24T16:25:31.794Z,-2.67
2018-02-24T16:28:00.793Z,-2.72
2018-02-24T16:30:29.240Z,-2.71
2018-02-24T16:32:58.049Z,-2.82
2018-02-24T16:35:26.677Z,-2.73
2018-02-24T16:37:55.046Z,-2.85
2018-02-24T16:40:23.446Z,-2.86
2018-02-24T16:42:51.772Z,-2.93
2018-02-24T16:45:20.121Z,-2.96
2018-02-24T16:47:49.843Z,-3.05
2018-02-24T16:50:18.947Z,-3.12
2018-02-24T16:52:47.294Z,-3.05
2018-02-24T16:55:15.666Z,-3.12
2018-02-24T16:57:44.800Z,-3.10
2018-02-24T17:00:13.122Z,-3.08
2018-02-24T17:02:41.506Z,-3.03
2018-02-24T17:05:09.911Z,-3.07
2018-02-24T17:07:38.508Z,-3.26
2018-02-24T17:10:08.113Z,-3.13
2018-02-24T17:12:36.750Z,-3.23
2018-02-24T17:15:06.173Z,-3.29
2018-02-24T17:17:35.182Z,-3.34
2018-02-24T17:20:03.858Z,-3.32
2018-02-24T17:22:32.270Z,-3.35
2018-02-24T17:25:02.174Z,-3.50
2018-02-24T17:27:31.296Z,-3.53
2018-02-24T17:29:59.682Z,-3.58
2018-02-24T17:32:28.142Z,-3.51
2018-02-24T17:34:57.350Z,-3.52
2018-02-24T17:37:25.745Z,-3.44
2018-02-24T17:39:54.080Z,-3.54
2018-02-24T17:42:22.443Z,-3.58
2018-02-24T17:44:50.798Z,-3.77
2018-02-24T17:47:19.162Z,-3.92
2018-02-24T17:49:47.582Z,-3.92
2018-02-24T17:52:15.941Z,-3.96
2018-02-24T17:54:44.256Z,-3.91
2018-02-24T17:57:13.384Z,-3.96
2018-02-24T17:59:41.713Z,-4.02
2018-02-24T18:02:10.107Z,-3.93
2018-02-24T18:04:39.196Z,-4.14
2018-02-24T18:07:08.289Z,-4.16
2018-02-24T18:09:37.421Z,-4.21
2018-02-24T18:12:05.785Z,-4.21
2018-02-24T18:14:34.146Z,-4.11
2018-02-24T18:17:03.980Z,-4.17
2018-02-24T18:19:33.487Z,-4.12
2018-02-24T18:22:01.993Z,-4.14
2018-02-24T18:24:30.379Z,-4.20
2018-02-24T18:26:59.639Z,-4.16
2018-02-24T18:29:28.023Z,-4.23
2018-02-24T18:31:56.372Z,-4.14
2018-02-24T18:34:25.471Z,-4.19
2018-02-24T18:36:54.605Z,-4.29
2018-02-24T18:39:22.941Z,-4.42
2018-02-24T18:41:52.462Z,-4.31
2018-02-24T18:44:22.165Z,-4.41
2018-02-24T18:46:51.332Z,-4.45
2018-02-24T18:49:19.755Z,-4.38
2018-02-24T18:51:48.085Z,-4.36
2018-02-24T18:54:16.493Z,-4.47
2018-02-24T18:56:44.830Z,-4.40
2018-02-24T18:59:13.197Z,-4.31
2018-02-24T19:01:42.715Z,-4.46
2018-02-24T19:04:11.438Z,-4.42
2018-02-24T19:06:40.561Z,-4.39
2018-02-24T19:09:09.696Z,-4.38
2018-02-24T19:11:38.185Z,-4.11
2018-02-24T19:14:06.577Z,-4.04
2018-02-24T19:16:35.319Z,-4.02
2018-02-24T19:19:03.676Z,-4.11
2018-02-24T19:21:32.072Z,-4.10
2018-02-24T19:24:01.199Z,-4.20
2018-02-24T19:26:29.575Z,-4.17
2018-02-24T19:28:57.958Z,-4.13
2018-02-24T19:31:27.783Z,-4.10
2018-02-24T19:33:56.141Z,-4.13
2018-02-24T19:36:24.466Z,-4.19
2018-02-24T19:38:54.365Z,-4.11
2018-02-24T19:41:23.801Z,-4.21
2018-02-24T19:43:52.123Z,-4.08
2018-02-24T19:46:21.991Z,-4.10
2018-02-24T19:48:51.125Z,-4.16
2018-02-24T19:51:19.480Z,-4.23
2018-02-24T19:53:47.812Z,-4.26
2018-02-24T19:56:16.972Z,-4.37
2018-02-24T19:58:45.317Z,-4.44
2018-02-24T20:01:15.032Z,-4.56
2018-02-24T20:03:43.433Z,-4.60
2018-02-24T20:06:11.773Z,-4.71
2018-02-24T20:08:41.651Z,-4.69
2018-02-24T20:11:09.989Z,-4.80
2018-02-24T20:13:38.350Z,-4.79
2018-02-24T20:16:06.701Z,-4.91
2018-02-24T20:18:35.820Z,-4.84
2018-02-24T20:21:04.257Z,-4.88
2018-02-24T20:23:32.591Z,-4.93
2018-02-24T20:26:01.747Z,-4.96
2018-02-24T20:28:31.470Z,-5.06
2018-02-24T20:30:59.831Z,-5.12
2018-02-24T20:33:28.950Z,-5.18
2018-02-24T20:35:58.321Z,-5.23
2018-02-24T20:38:26.639Z,-5.23
2018-02-24T20:40:55.733Z,-5.43
2018-02-24T20:43:24.128Z,-5.21
2018-02-24T20:45:53.469Z,-5.25
2018-02-24T20:48:21.839Z,-5.34
2018-02-24T20:50:50.144Z,-5.29
2018-02-24T20:53:19.288Z,-5.36
2018-02-24T20:55:47.656Z,-5.43
2018-02-24T20:58:16.013Z,-5.65
2018-02-24T21:00:44.779Z,-5.78
2018-02-24T21:03:13.144Z,-5.84
2018-02-24T21:05:42.292Z,-5.60
2018-02-24T21:08:12.039Z,-5.70
2018-02-24T21:10:41.212Z,-5.78
2018-02-24T21:13:09.535Z,-5.88
2018-02-24T21:15:37.885Z,-5.80
2018-02-24T21:18:06.248Z,-5.79
2018-02-24T21:20:34.591Z,-5.72
2018-02-24T21:23:02.979Z,-5.82
2018-02-24T21:25:32.082Z,-5.87
2018-02-24T21:28:01.631Z,-5.92
2018-02-24T21:30:29.960Z,-6.07
2018-02-24T21:32:58.343Z,-5.94
2018-02-24T21:35:26.696Z,-5.99
2018-02-24T21:37:56.420Z,-6.15
2018-02-24T21:40:25.188Z,-6.11
2018-02-24T21:42:53.516Z,-6.11
2018-02-24T21:45:21.884Z,-6.01
2018-02-24T21:47:50.222Z,-6.13
2018-02-24T21:50:18.578Z,-6.07
2018-02-24T21:52:47.740Z,-6.10
2018-02-24T21:55:16.086Z,-6.28
2018-02-24T21:57:44.432Z,-6.32
2018-02-24T22:00:13.548Z,-6.35
2018-02-24T22:02:41.853Z,-6.21
2018-02-24T22:05:10.239Z,-6.42
2018-02-24T22:07:38.568Z,-6.36
2018-02-24T22:10:06.903Z,-6.31
2018-02-24T22:12:35.273Z,-6.31
2018-02-24T22:15:03.655Z,-6.50
2018-02-24T22:17:32.191Z,-6.57
2018-02-24T22:20:02.285Z,-6.63
2018-02-24T22:22:30.639Z,-6.54
2018-02-24T22:24:58.970Z,-6.69
2018-02-24T22:27:27.363Z,-6.70
2018-02-24T22:29:55.760Z,-6.51
2018-02-24T22:32:24.172Z,-6.72
2018-02-24T22:34:52.718Z,-6.81
2018-02-24T22:37:21.075Z,-6.76
2018-02-24T22:39:49.389Z,-6.86
2018-02-24T22:42:17.752Z,-6.97
2018-02-24T22:44:46.069Z,-7.00
2018-02-24T22:47:15.575Z,-7.06
2018-02-24T22:49:44.719Z,-7.11
2018-02-24T22:52:13.091Z,-7.01
2018-02-24T22:54:41.468Z,-7.06
2018-02-24T22:57:09.847Z,-7.02
2018-02-24T22:59:38.176Z,-7.07
2018-02-24T23:02:07.168Z,-7.15
2018-02-24T23:04:36.295Z,-7.17
2018-02-24T23:07:04.638Z,-7.15
2018-02-24T23:09:32.965Z,-7.11
2018-02-24T23:12:01.343Z,-7.20
2018-02-24T23:14:29.967Z,-7.32
2018-02-24T23:16:59.205Z,-7.32
2018-02-24T23:19:28.919Z,-7.36
2018-02-24T23:21:57.297Z,-7.39
2018-02-24T23:24:25.671Z,-7.49
2018-02-24T23:26:54.795Z,-7.58
2018-02-24T23:29:23.155Z,-7.62
2018-02-24T23:31:51.485Z,-7.52
2018-02-24T23:34:19.840Z,-7.48
2018-02-24T23:36:48.965Z,-7.60
2018-02-24T23:39:17.371Z,-7.59
2018-02-24T23:41:47.094Z,-7.56
2018-02-24T23:44:15.498Z,-7.58
2018-02-24T23:46:43.826Z,-7.48
2018-02-24T23:49:13.071Z,-7.56
2018-02-24T23:51:41.439Z,-7.55
2018-02-24T23:54:09.918Z,-7.51
2018-02-24T23:56:38.258Z,-7.56
2018-02-24T23:59:07.393Z,-7.55
